createdAt,value
2023-05-27T00:02:01.478Z,5.90
2023-05-27T00:05:04.745Z,5.90
2023-05-27T00:08:07.416Z,5.72
2023-05-27T00:11:09.914Z,5.68
2023-05-27T00:14:12.403Z,5.97
2023-05-27T00:17:15.257Z,5.97
2023-05-27T00:20:17.716Z,6.30
2023-05-27T00:23:20.248Z,5.82
2023-05-27T00:26:23.005Z,5.93
2023-05-27T00:29:27.947Z,5.90
2023-05-27T00:32:30.612Z,5.90
2023-05-27T00:35:33.256Z,6.00
2023-05-27T00:38:36.532Z,5.95
2023-05-27T00:41:39.677Z,5.72
2023-05-27T00:44:42.445Z,5.85
2023-05-27T00:47:45.208Z,6.07
2023-05-27T00:50:47.861Z,5.90
2023-05-27T00:53:51.338Z,6.18
2023-05-27T00:56:56.454Z,6.03
2023-05-27T00:59:59.963Z,5.80
2023-05-27T01:03:03.037Z,6.17
2023-05-27T01:06:15.700Z,6.05
2023-05-27T01:09:32.723Z,6.30
2023-05-27T01:13:05.641Z,6.47
2023-05-27T01:16:13.676Z,6.40
2023-05-27T01:19:27.121Z,6.27
2023-05-27T01:22:31.269Z,6.53
2023-05-27T01:25:34.012Z,6.47
2023-05-27T01:28:37.372Z,6.70
2023-05-27T01:31:50.533Z,6.53
2023-05-27T01:35:10.301Z,6.30
2023-05-27T01:38:18.990Z,6.53
2023-05-27T01:41:23.595Z,6.40
2023-05-27T01:44:26.319Z,6.47
2023-05-27T01:47:28.777Z,6.88
2023-05-27T01:50:31.706Z,6.20
2023-05-27T01:53:35.394Z,6.95
2023-05-27T01:56:38.942Z,6.55
2023-05-27T01:59:41.844Z,6.90
2023-05-27T02:02:44.568Z,6.25
2023-05-27T02:05:49.887Z,6.80
2023-05-27T02:08:53.569Z,6.50
2023-05-27T02:11:56.103Z,6.57
2023-05-27T02:14:58.634Z,6.50
2023-05-27T02:18:01.188Z,7.10
2023-05-27T02:21:07.119Z,6.80
2023-05-27T02:24:09.684Z,6.75
2023-05-27T02:27:12.278Z,6.65
2023-05-27T02:30:16.076Z,6.90
2023-05-27T02:33:18.859Z,7.18
2023-05-27T02:36:25.159Z,6.50
2023-05-27T02:39:27.868Z,6.53
2023-05-27T02:42:30.595Z,6.82
2023-05-27T02:45:33.105Z,7.22
2023-05-27T02:48:35.606Z,7.30
2023-05-27T02:51:39.168Z,6.63
2023-05-27T02:54:41.601Z,6.97
2023-05-27T02:57:44.023Z,7.55
2023-05-27T03:00:47.521Z,7.47
2023-05-27T03:03:52.277Z,6.45
2023-05-27T03:06:55.676Z,7.37
2023-05-27T03:09:59.123Z,7.20
2023-05-27T03:13:02.309Z,6.53
2023-05-27T03:16:05.154Z,6.95
2023-05-27T03:19:09.709Z,6.90
2023-05-27T03:22:13.392Z,6.80
2023-05-27T03:25:17.477Z,7.10
2023-05-27T03:28:20.920Z,7.07
2023-05-27T03:31:24.745Z,6.93
2023-05-27T03:34:38.763Z,6.97
2023-05-27T03:37:41.540Z,6.60
2023-05-27T03:40:45.077Z,7.13
2023-05-27T03:43:47.666Z,6.72
2023-05-27T03:46:52.086Z,6.75
2023-05-27T03:49:54.584Z,7.28
2023-05-27T03:52:57.069Z,6.30
2023-05-27T03:55:59.783Z,6.53
2023-05-27T03:59:02.521Z,6.32
2023-05-27T04:02:05.758Z,6.35
2023-05-27T04:05:08.735Z,6.45
2023-05-27T04:08:14.263Z,6.43
2023-05-27T04:11:17.941Z,6.32
2023-05-27T04:14:21.403Z,6.78
2023-05-27T04:17:24.021Z,6.30
2023-05-27T04:20:26.816Z,6.63
2023-05-27T04:23:33.957Z,6.00
2023-05-27T04:26:39.555Z,6.20
2023-05-27T04:29:44.197Z,6.25
2023-05-27T04:32:47.432Z,5.90
2023-05-27T04:35:54.484Z,5.70
2023-05-27T04:39:00.356Z,5.83
2023-05-27T04:42:03.156Z,6.13
2023-05-27T04:45:09.674Z,6.00
2023-05-27T04:48:12.351Z,5.88
2023-05-27T04:51:24.064Z,5.75
2023-05-27T04:54:26.808Z,5.67
2023-05-27T04:57:31.026Z,5.53
2023-05-27T05:00:54.321Z,5.55
2023-05-27T05:04:13.484Z,5.75
2023-05-27T05:07:23.703Z,5.32
2023-05-27T05:10:27.622Z,5.40
2023-05-27T05:13:30.516Z,5.28
2023-05-27T05:16:33.572Z,5.30
2023-05-27T05:19:36.187Z,5.68
2023-05-27T05:22:39.071Z,4.90
2023-05-27T05:25:42.205Z,4.90
2023-05-27T05:28:44.857Z,5.00
2023-05-27T05:31:48.348Z,4.80
2023-05-27T05:34:53.819Z,5.03
2023-05-27T05:37:57.173Z,4.80
2023-05-27T05:41:01.067Z,5.03
2023-05-27T05:44:03.985Z,4.88
2023-05-27T05:47:06.846Z,4.88
2023-05-27T05:50:10.368Z,4.85
2023-05-27T05:53:14.154Z,4.68
2023-05-27T05:56:18.326Z,4.27
2023-05-27T05:59:21.434Z,4.45
2023-05-27T06:02:24.119Z,4.72
2023-05-27T06:05:27.361Z,4.20
2023-05-27T06:08:31.408Z,3.95
2023-05-27T06:11:41.655Z,4.23
2023-05-27T06:14:44.280Z,4.50
2023-05-27T06:17:51.450Z,4.28
2023-05-27T06:20:54.247Z,4.18
2023-05-27T06:24:00.510Z,4.10
2023-05-27T06:27:08.999Z,4.20
2023-05-27T06:30:12.357Z,4.07
2023-05-27T06:33:19.758Z,4.20
2023-05-27T06:36:22.652Z,3.80
2023-05-27T06:39:25.191Z,3.83
2023-05-27T06:42:27.741Z,3.67
2023-05-27T06:46:02.589Z,3.75
2023-05-27T06:49:29.806Z,3.40
2023-05-27T06:52:35.623Z,4.00
2023-05-27T06:55:44.023Z,3.67
2023-05-27T06:58:54.536Z,3.70
2023-05-27T07:01:57.814Z,3.67
2023-05-27T07:05:00.753Z,3.90
2023-05-27T07:08:03.622Z,3.45
2023-05-27T07:11:06.177Z,3.10
2023-05-27T07:14:10.461Z,3.40
2023-05-27T07:17:14.259Z,3.08
2023-05-27T07:20:17.418Z,3.00
2023-05-27T07:23:20.016Z,3.60
2023-05-27T07:26:30.506Z,3.30
2023-05-27T07:29:32.981Z,3.33
2023-05-27T07:33:05.157Z,3.10
2023-05-27T07:36:08.260Z,3.58
2023-05-27T07:39:10.790Z,3.17
2023-05-27T07:42:13.726Z,5.20
2023-05-27T07:45:16.557Z,4.00
2023-05-27T07:48:19.112Z,3.53
2023-05-27T07:51:21.864Z,3.30
2023-05-27T07:54:24.437Z,3.20
2023-05-27T07:57:27.092Z,3.50
2023-05-27T08:00:32.649Z,3.17
2023-05-27T08:03:36.543Z,3.15
2023-05-27T08:06:53.981Z,3.00
2023-05-27T08:10:02.871Z,3.15
2023-05-27T08:13:23.731Z,3.80
2023-05-27T08:16:55.945Z,3.10
2023-05-27T08:20:21.680Z,3.40
2023-05-27T08:23:35.598Z,2.80
2023-05-27T08:26:53.208Z,3.38
2023-05-27T08:30:03.491Z,3.42
2023-05-27T08:33:25.880Z,3.40
2023-05-27T08:36:28.390Z,3.85
2023-05-27T08:39:32.103Z,3.28
2023-05-27T08:42:42.778Z,2.90
2023-05-27T08:45:46.744Z,3.50
2023-05-27T08:48:50.808Z,3.10
2023-05-27T08:51:55.933Z,3.03
2023-05-27T08:55:00.001Z,3.03
2023-05-27T08:58:02.900Z,3.28
2023-05-27T09:01:09.802Z,3.30
2023-05-27T09:04:14.645Z,3.00
2023-05-27T09:07:17.763Z,2.95
2023-05-27T09:10:20.785Z,3.17
2023-05-27T09:13:27.972Z,3.25
2023-05-27T09:16:30.662Z,3.38
2023-05-27T09:19:33.283Z,3.43
2023-05-27T09:22:35.893Z,3.20
2023-05-27T09:25:38.370Z,3.25
2023-05-27T09:28:41.412Z,3.67
2023-05-27T09:31:46.257Z,3.40
2023-05-27T09:34:48.848Z,3.33
2023-05-27T09:37:52.127Z,3.28
2023-05-27T09:40:54.610Z,3.17
2023-05-27T09:43:58.219Z,3.13
2023-05-27T09:47:03.314Z,3.60
2023-05-27T09:50:06.896Z,3.20
2023-05-27T09:53:12.441Z,3.13
2023-05-27T09:56:15.410Z,3.40
2023-05-27T09:59:18.647Z,3.47
2023-05-27T10:02:23.057Z,3.90
2023-05-27T10:05:27.000Z,3.63
2023-05-27T10:08:29.463Z,3.65
2023-05-27T10:11:33.294Z,3.45
2023-05-27T10:14:36.660Z,3.50
2023-05-27T10:18:12.167Z,3.75
2023-05-27T10:21:21.236Z,3.63
2023-05-27T10:24:33.774Z,4.25
2023-05-27T10:27:44.420Z,3.17
2023-05-27T10:30:47.652Z,3.60
2023-05-27T10:33:52.494Z,3.78
2023-05-27T10:37:03.907Z,3.60
2023-05-27T10:40:07.657Z,3.75
2023-05-27T10:43:19.968Z,3.80
2023-05-27T10:46:22.577Z,4.30
2023-05-27T10:49:26.866Z,4.32
2023-05-27T10:52:32.762Z,3.90
2023-05-27T10:55:37.404Z,4.07
2023-05-27T10:58:40.126Z,4.10
2023-05-27T11:01:43.102Z,4.38
2023-05-27T11:04:45.786Z,4.50
2023-05-27T11:07:48.207Z,4.30
2023-05-27T11:10:50.786Z,4.30
2023-05-27T11:13:55.188Z,4.60
2023-05-27T11:16:57.692Z,4.38
2023-05-27T11:20:00.435Z,4.40
2023-05-27T11:23:03.421Z,4.07
2023-05-27T11:26:05.971Z,4.03
2023-05-27T11:29:08.742Z,4.60
2023-05-27T11:32:11.243Z,4.30
2023-05-27T11:35:15.345Z,4.10
2023-05-27T11:38:19.254Z,4.20
2023-05-27T11:41:23.633Z,4.25
2023-05-27T11:44:28.427Z,4.07
2023-05-27T11:47:31.317Z,4.35
2023-05-27T11:50:35.487Z,4.20
2023-05-27T11:53:47.732Z,4.70
2023-05-27T11:56:51.469Z,4.20
2023-05-27T11:59:54.079Z,4.75
2023-05-27T12:02:56.717Z,4.82
2023-05-27T12:05:59.435Z,4.60
2023-05-27T12:09:03.542Z,4.20
2023-05-27T12:12:06.506Z,4.57
2023-05-27T12:15:09.471Z,4.03
2023-05-27T12:18:11.992Z,4.40
2023-05-27T12:21:16.272Z,4.40
2023-05-27T12:24:20.612Z,4.50
2023-05-27T12:27:23.586Z,4.72
2023-05-27T12:30:26.084Z,4.25
2023-05-27T12:33:28.601Z,4.05
2023-05-27T12:36:31.168Z,4.22
2023-05-27T12:39:33.680Z,5.20
2023-05-27T12:42:36.391Z,4.70
2023-05-27T12:45:38.908Z,4.60
2023-05-27T12:48:41.462Z,4.43
2023-05-27T12:51:44.024Z,4.85
2023-05-27T12:54:46.490Z,4.63
2023-05-27T12:57:51.165Z,4.72
2023-05-27T13:00:53.730Z,4.70
2023-05-27T13:03:56.268Z,5.32
2023-05-27T13:06:59.435Z,5.25
2023-05-27T13:10:04.079Z,5.10
2023-05-27T13:13:07.208Z,5.38
2023-05-27T13:16:09.754Z,5.03
2023-05-27T13:19:12.382Z,4.95
2023-05-27T13:22:16.174Z,5.05
2023-05-27T13:25:18.636Z,5.17
2023-05-27T13:28:21.081Z,5.25
2023-05-27T13:31:23.636Z,5.68
2023-05-27T13:34:28.142Z,5.00
2023-05-27T13:37:31.022Z,5.57
2023-05-27T13:40:33.586Z,5.40
2023-05-27T13:43:36.073Z,5.20
2023-05-27T13:46:39.357Z,5.13
2023-05-27T13:49:42.314Z,5.30
2023-05-27T13:52:46.435Z,5.32
2023-05-27T13:55:49.712Z,5.07
2023-05-27T13:58:56.257Z,5.28
2023-05-27T14:01:58.830Z,5.65
2023-05-27T14:05:01.762Z,5.20
2023-05-27T14:08:04.794Z,5.65
2023-05-27T14:11:07.705Z,5.57
2023-05-27T14:14:10.569Z,5.40
2023-05-27T14:17:13.118Z,6.05
2023-05-27T14:20:15.902Z,5.20
2023-05-27T14:23:18.776Z,5.45
2023-05-27T14:26:21.458Z,5.27
2023-05-27T14:29:23.935Z,5.35
2023-05-27T14:32:26.454Z,5.53
2023-05-27T14:35:29.253Z,5.80
2023-05-27T14:38:31.758Z,5.35
2023-05-27T14:41:34.274Z,5.27
2023-05-27T14:44:37.028Z,5.43
2023-05-27T14:47:39.541Z,5.90
2023-05-27T14:50:41.990Z,5.57
2023-05-27T14:53:44.809Z,5.70
2023-05-27T14:56:48.279Z,5.60
2023-05-27T14:59:50.794Z,5.32
2023-05-27T15:02:53.541Z,5.07
2023-05-27T15:05:58.951Z,5.50
2023-05-27T15:09:02.294Z,5.57
2023-05-27T15:12:05.186Z,5.10
2023-05-27T15:15:08.732Z,5.30
2023-05-27T15:18:12.071Z,4.82
2023-05-27T15:21:16.666Z,5.07
2023-05-27T15:24:19.423Z,5.20
2023-05-27T15:27:22.250Z,5.23
2023-05-27T15:30:24.865Z,5.07
2023-05-27T15:33:27.396Z,5.60
2023-05-27T15:36:30.100Z,5.13
2023-05-27T15:39:32.773Z,5.13
2023-05-27T15:42:36.190Z,4.83
2023-05-27T15:45:49.054Z,5.10
2023-05-27T15:49:00.849Z,4.97
2023-05-27T15:52:03.684Z,5.20
2023-05-27T15:55:06.954Z,5.20
2023-05-27T15:58:09.601Z,5.03
2023-05-27T16:01:12.182Z,4.90
2023-05-27T16:04:15.021Z,5.07
2023-05-27T16:07:17.639Z,5.22
2023-05-27T16:10:21.575Z,4.95
2023-05-27T16:13:25.255Z,5.23
2023-05-27T16:16:28.347Z,5.78
2023-05-27T16:19:30.956Z,5.03
2023-05-27T16:22:33.472Z,5.10
2023-05-27T16:25:37.357Z,5.30
2023-05-27T16:28:41.806Z,5.30
2023-05-27T16:31:44.289Z,5.35
2023-05-27T16:34:46.795Z,5.38
2023-05-27T16:37:49.656Z,5.68
2023-05-27T16:40:52.280Z,5.68
2023-05-27T16:43:55.103Z,5.50
2023-05-27T16:46:57.665Z,4.80
2023-05-27T16:50:00.278Z,5.55
2023-05-27T16:53:04.354Z,5.75
2023-05-27T16:56:06.879Z,5.45
2023-05-27T16:59:09.417Z,4.93
2023-05-27T17:02:13.819Z,5.38
2023-05-27T17:05:16.527Z,5.50
2023-05-27T17:08:19.269Z,5.55
2023-05-27T17:11:22.754Z,6.30
2023-05-27T17:14:25.556Z,5.50
2023-05-27T17:17:28.327Z,5.55
2023-05-27T17:20:31.098Z,7.30
2023-05-27T17:23:33.672Z,5.75
2023-05-27T17:26:36.117Z,6.10
2023-05-27T17:29:42.583Z,5.43
2023-05-27T17:32:45.231Z,6.32
2023-05-27T17:35:48.057Z,7.68
2023-05-27T17:38:50.698Z,8.10
2023-05-27T17:41:53.205Z,6.70
2023-05-27T17:44:56.447Z,7.10
2023-05-27T17:47:58.952Z,7.47
2023-05-27T17:51:01.909Z,7.60
2023-05-27T17:54:04.417Z,7.45
2023-05-27T17:57:07.992Z,6.90
2023-05-27T18:00:11.159Z,6.00
2023-05-27T18:03:13.814Z,6.30
2023-05-27T18:06:16.519Z,6.00
2023-05-27T18:09:19.044Z,6.18
2023-05-27T18:12:21.525Z,6.20
2023-05-27T18:15:24.027Z,5.90
2023-05-27T18:18:27.350Z,6.05
2023-05-27T18:21:29.981Z,6.25
2023-05-27T18:24:32.512Z,7.25
2023-05-27T18:27:35.248Z,8.38
2023-05-27T18:30:37.997Z,8.70
2023-05-27T18:33:40.703Z,10.05
2023-05-27T18:36:43.682Z,7.93
2023-05-27T18:39:46.396Z,7.25
2023-05-27T18:42:49.033Z,7.60
2023-05-27T18:45:57.140Z,7.53
2023-05-27T18:48:59.848Z,7.22
2023-05-27T18:52:02.425Z,6.72
2023-05-27T18:55:05.418Z,6.28
2023-05-27T18:58:08.410Z,6.65
2023-05-27T19:01:11.132Z,6.10
2023-05-27T19:04:13.803Z,6.70
2023-05-27T19:07:17.657Z,8.50
2023-05-27T19:10:20.243Z,9.00
2023-05-27T19:13:22.813Z,8.13
2023-05-27T19:16:25.458Z,8.30
2023-05-27T19:19:28.159Z,7.65
2023-05-27T19:22:30.619Z,6.65
2023-05-27T19:25:33.283Z,5.60
2023-05-27T19:28:36.028Z,4.63
2023-05-27T19:31:38.529Z,5.00
2023-05-27T19:34:41.026Z,5.68
2023-05-27T19:37:43.707Z,4.25
2023-05-27T19:40:46.291Z,3.95
2023-05-27T19:43:48.758Z,4.10
2023-05-27T19:46:51.765Z,3.50
2023-05-27T19:49:54.347Z,3.70
2023-05-27T19:52:56.787Z,3.55
2023-05-27T19:56:00.593Z,3.40
2023-05-27T19:59:03.128Z,3.25
2023-05-27T20:02:06.021Z,3.00
2023-05-27T20:05:09.699Z,3.45
2023-05-27T20:08:12.224Z,2.95
2023-05-27T20:11:14.730Z,3.20
2023-05-27T20:14:17.230Z,3.20
2023-05-27T20:17:19.788Z,3.13
2023-05-27T20:20:27.531Z,3.17
2023-05-27T20:23:30.302Z,3.38
2023-05-27T20:26:32.818Z,2.88
2023-05-27T20:29:35.376Z,2.72
2023-05-27T20:32:39.233Z,3.33
2023-05-27T20:35:42.135Z,3.20
2023-05-27T20:38:45.202Z,3.50
2023-05-27T20:41:47.638Z,3.15
2023-05-27T20:44:50.163Z,3.20
2023-05-27T20:47:52.726Z,3.00
2023-05-27T20:50:55.393Z,2.80
2023-05-27T20:54:00.468Z,2.70
2023-05-27T20:57:03.833Z,2.70
2023-05-27T21:00:07.881Z,3.60
2023-05-27T21:03:10.654Z,3.20
2023-05-27T21:06:14.270Z,5.03
2023-05-27T21:09:16.847Z,3.33
2023-05-27T21:12:19.357Z,3.05
2023-05-27T21:15:21.857Z,2.70
2023-05-27T21:18:24.401Z,2.70
2023-05-27T21:21:28.205Z,3.20
2023-05-27T21:24:30.804Z,2.85
2023-05-27T21:27:33.224Z,2.70
2023-05-27T21:30:35.749Z,3.00
2023-05-27T21:33:38.247Z,3.47
2023-05-27T21:36:40.812Z,2.78
2023-05-27T21:39:43.255Z,3.38
2023-05-27T21:42:45.835Z,3.40
2023-05-27T21:45:48.390Z,3.53
2023-05-27T21:48:51.020Z,3.17
2023-05-27T21:51:54.293Z,3.50
2023-05-27T21:54:58.085Z,3.08
2023-05-27T21:58:01.256Z,3.20
2023-05-27T22:01:04.454Z,3.28
2023-05-27T22:04:08.503Z,3.27
2023-05-27T22:07:11.102Z,3.15
2023-05-27T22:10:13.951Z,3.22
2023-05-27T22:13:16.429Z,2.90
2023-05-27T22:16:19.027Z,3.03
2023-05-27T22:19:21.557Z,3.20
2023-05-27T22:22:24.180Z,2.90
2023-05-27T22:25:32.342Z,3.17
2023-05-27T22:28:35.272Z,2.47
2023-05-27T22:31:37.951Z,2.85
2023-05-27T22:34:40.850Z,2.90
2023-05-27T22:37:43.394Z,2.67
2023-05-27T22:40:46.036Z,3.17
2023-05-27T22:43:48.430Z,3.00
2023-05-27T22:46:51.042Z,2.95
2023-05-27T22:49:53.701Z,2.90
2023-05-27T22:52:56.245Z,2.78
2023-05-27T22:55:59.200Z,3.05
2023-05-27T22:59:01.781Z,3.15
2023-05-27T23:02:04.375Z,2.80
2023-05-27T23:05:07.628Z,3.03
2023-05-27T23:08:10.163Z,3.13
2023-05-27T23:11:12.699Z,3.05
2023-05-27T23:14:15.254Z,2.90
2023-05-27T23:17:17.820Z,3.28
2023-05-27T23:20:21.021Z,2.70
2023-05-27T23:23:23.542Z,2.95
2023-05-27T23:26:26.486Z,2.67
2023-05-27T23:29:28.938Z,2.90
2023-05-27T23:32:31.467Z,2.97
2023-05-27T23:35:34.021Z,2.80
2023-05-27T23:38:36.878Z,2.65
2023-05-27T23:41:39.394Z,2.78
2023-05-27T23:44:41.890Z,2.55
2023-05-27T23:47:44.560Z,2.58
2023-05-27T23:50:47.216Z,2.90
2023-05-27T23:53:49.700Z,2.60
2023-05-27T23:56:52.492Z,2.83
